Flight Track Log - Related Links

Times and Time Zones

All times are in EDT time to prevent confusion due to time zone crossing. See the TAM3959 flight status page for this flight to view local times or setup timezone preferences in your user account.

Time Position Orientation Groundspeed Altitude Reporting Facility
EDT Latitude Longitude Course Direction KTS MPH feet Rate Location/Type
Thu 08:11:00 PM -23.4541 -45.7747 257° West  Level Estimated
Thu 08:12:00 PM -23.4734 -45.8718 258° West  Level Estimated
Thu 08:13:00 PM -23.4926 -45.9690 258° West  Level Estimated
Thu 08:14:00 PM -23.5118 -46.0662 258° West  Level Estimated
Thu 08:15:00 PM -23.5309 -46.1634 258° West  Level Estimated
Thu 08:16:00 PM -23.5500 -46.2606 258° West  Level Estimated
Thu 08:17:00 PM -23.5690 -46.3579 258° West  Level Estimated
Thu 08:18:00 PM -23.5879 -46.4552 258° West  Level Estimated
Thu 08:19:00 PM -23.6068 -46.5525 258° West  Level Estimated
Thu 08:20:00 PM -23.6256 -46.6498 258° West  Level Estimated
Thu 08:21:00 PM -23.6267 -46.6554 258° West  Level Estimated
Thu 08:22:00 PM -23.6267 -46.6554 114° Southeast  Level Estimated
Thu 08:23:00 PM -23.6267 -46.6554 114° Southeast  Level Estimated
Thu 08:24:00 PM -23.6267 -46.6554 114° Southeast  Level Estimated
Thu 08:25:00 PM -23.6267 -46.6554 114° Southeast  Level Estimated
Thu 08:26:00 PM -23.6267 -46.6554 114° Southeast  Level Estimated
Thu 08:27:00 PM -23.6267 -46.6554 114° Southeast  Level Estimated
Thu 08:28:00 PM -23.6267 -46.6554 114° Southeast  Level Estimated
Thu 08:29:00 PM -23.6267 -46.6554 114° Southeast  Level Estimated
Thu 08:30:00 PM -23.6267 -46.6554 114° Southeast  Level Estimated
Thu 08:31:00 PM -23.6267 -46.6554 114° Southeast  Level Estimated
Thu 08:32:00 PM -23.6267 -46.6554 114° Southeast  Level Estimated
Thu 08:33:00 PM -23.6267 -46.6554 114° Southeast  Level Estimated
Thu 08:34:00 PM -23.6267 -46.6554 114° Southeast  Level Estimated
Thu 08:35:00 PM -23.6267 -46.6554 114° Southeast  Level Estimated
Thu 08:36:00 PM -23.6267 -46.6554 114° Southeast  Level Estimated

Login

Don't have an account? Register now (free) for customized features, flight alerts, and more!